Time;durP1;ratioP1;P1;durP2;ratioP2;P2;SDS_P1;SDS_P2;PMS_P1;PMS_P2;Temp;Humidity;BMP_temperature;BMP_pressure;BME280_temperature;BME280_humidity;BME280_pressure;Samples;Min_cycle;Max_cycle;Signal;HPM_P1;HPM_P2
2021/06/16 00:00:43;;;;;;;8.47;6.37;;;18.10;99.90;;;19.20;100.00;98198.94;5068421;28;21032;-76
2021/06/16 00:03:12;;;;;;;8.53;6.70;;;18.00;99.90;;;19.26;100.00;98186.59;5044550;28;20457;-76
2021/06/16 00:05:43;;;;;;;8.30;6.50;;;18.10;99.90;;;19.12;100.00;98191.41;5045738;28;20548;-76
2021/06/16 00:08:12;;;;;;;7.87;6.47;;;18.00;99.90;;;19.02;100.00;98191.22;5048005;28;20457;-76
2021/06/16 00:10:41;;;;;;;11.73;6.40;;;17.90;99.90;;;19.06;100.00;98192.31;5042649;28;20461;-76
2021/06/16 00:13:09;;;;;;;9.63;7.10;;;17.90;99.90;;;19.15;100.00;98180.31;5047880;28;20893;-76
2021/06/16 00:15:43;;;;;;;6.70;5.57;;;18.00;99.90;;;19.05;100.00;98191.50;5046329;28;20506;-76
2021/06/16 00:18:12;;;;;;;10.40;6.43;;;17.90;99.90;;;18.96;100.00;98192.94;5046710;28;20461;-76
2021/06/16 00:20:41;;;;;;;13.00;7.37;;;17.80;99.90;;;18.93;100.00;98189.97;5043078;28;20563;-76
2021/06/16 00:23:09;;;;;;;10.67;6.67;;;17.80;99.90;;;19.07;100.00;98188.63;5043672;28;20843;-76
2021/06/16 00:25:38;;;;;;;14.03;6.33;;;18.00;99.90;;;18.87;100.00;98188.28;5047160;28;20556;-76
2021/06/16 00:28:07;;;;;;;12.30;6.80;;;17.70;99.90;;;18.79;100.00;98189.44;5044275;28;20949;-76
2021/06/16 00:30:35;;;;;;;10.30;6.53;;;17.60;99.90;;;18.83;100.00;98189.78;5044261;28;20531;-76
2021/06/16 00:33:06;;;;;;;10.37;6.33;;;17.70;99.90;;;18.83;100.00;98190.59;5041001;28;20492;-76
2021/06/16 00:35:34;;;;;;;11.93;6.20;;;17.70;99.90;;;18.74;100.00;98193.84;5045498;28;20465;-76
2021/06/16 00:38:03;;;;;;;10.47;7.03;;;17.60;99.90;;;18.78;100.00;98193.13;5042904;28;20871;-76
2021/06/16 00:40:32;;;;;;;8.63;6.00;;;17.60;99.90;;;18.66;100.00;98191.56;5045953;28;20931;-76
2021/06/16 00:43:01;;;;;;;10.10;6.40;;;17.50;99.90;;;18.78;100.00;98189.69;5044927;28;20457;-76
2021/06/16 00:45:31;;;;;;;9.77;7.10;;;17.70;99.90;;;18.74;100.00;98186.72;5045762;28;20461;-76
2021/06/16 00:48:00;;;;;;;11.20;6.60;;;17.60;99.90;;;18.66;100.00;98184.44;5044846;28;20468;-76
2021/06/16 00:50:35;;;;;;;12.40;6.73;;;17.50;99.90;;;18.57;100.00;98181.31;5046676;28;20469;-76
2021/06/16 00:53:05;;;;;;;10.90;6.30;;;17.50;99.90;;;18.53;100.00;98182.81;5043383;28;20488;-76
2021/06/16 00:55:37;;;;;;;8.73;6.60;;;17.40;99.90;;;18.63;100.00;98186.72;5043647;28;21115;-76
2021/06/16 00:58:07;;;;;;;29.83;7.10;;;17.60;99.90;;;18.64;100.00;98188.34;5045828;28;20500;-76
2021/06/16 01:00:43;;;;;;;10.17;7.37;;;17.50;99.90;;;18.54;100.00;98189.75;5045104;28;20547;-76
2021/06/16 01:03:17;;;;;;;11.17;7.00;;;17.50;99.90;;;18.44;100.00;98186.84;5027276;28;20902;-76
2021/06/16 01:05:52;;;;;;;9.87;6.30;;;17.30;99.90;;;18.58;100.00;98182.94;5023917;28;20465;-76
2021/06/16 01:08:28;;;;;;;9.60;6.60;;;17.50;99.90;;;18.66;100.00;98176.47;5023449;28;20489;-76
2021/06/16 01:11:01;;;;;;;20.93;6.40;;;17.50;99.90;;;18.66;100.00;98178.31;5024905;28;20470;-76
2021/06/16 01:13:37;;;;;;;14.43;6.20;;;17.50;99.90;;;18.65;100.00;98174.03;5021604;28;20516;-76
2021/06/16 01:16:12;;;;;;;11.83;6.77;;;17.60;99.90;;;18.58;100.00;98179.47;5024186;28;20476;-76
2021/06/16 01:18:47;;;;;;;12.53;6.77;;;17.50;99.90;;;18.46;100.00;98176.03;5025260;28;20454;-76
2021/06/16 01:21:19;;;;;;;8.20;6.00;;;17.30;99.90;;;18.22;100.00;98175.28;5023352;28;20567;-76
2021/06/16 01:24:04;;;;;;;10.40;6.60;;;17.10;99.90;;;18.20;100.00;98177.34;5025081;28;20508;-76
2021/06/16 01:26:41;;;;;;;10.80;6.77;;;17.10;99.90;;;18.09;100.00;98181.59;5018377;28;20457;-76
2021/06/16 01:29:16;;;;;;;11.10;7.00;;;17.00;99.90;;;18.04;100.00;98183.34;5027212;28;20454;-76
2021/06/16 01:31:46;;;;;;;12.77;7.67;;;16.90;99.90;;;17.99;100.00;98185.88;5022402;28;20531;-76
2021/06/16 01:34:18;;;;;;;8.20;6.43;;;16.90;99.90;;;18.14;100.00;98180.94;5027269;28;21034;-76
2021/06/16 01:36:48;;;;;;;10.00;7.17;;;17.00;99.90;;;18.04;100.00;98173.56;5025642;28;20473;-76
2021/06/16 01:39:22;;;;;;;8.27;6.37;;;16.90;99.90;;;17.96;100.00;98181.03;5027543;28;20537;-76
2021/06/16 01:41:59;;;;;;;9.20;6.90;;;16.80;99.90;;;18.08;100.00;98173.91;5025323;28;21374;-76
2021/06/16 01:44:29;;;;;;;8.47;6.37;;;16.90;99.90;;;18.01;100.00;98175.88;5025312;28;20890;-76
2021/06/16 01:46:58;;;;;;;10.37;6.70;;;16.90;99.90;;;18.08;100.00;98179.22;5023614;28;20536;-76
2021/06/16 01:49:29;;;;;;;10.00;7.60;;;17.00;99.90;;;18.13;100.00;98176.66;5024763;28;20462;-76
2021/06/16 01:52:00;;;;;;;12.17;7.20;;;17.10;99.90;;;18.02;100.00;98166.88;5025384;28;20578;-76
2021/06/16 01:54:31;;;;;;;11.33;6.63;;;16.90;99.90;;;18.04;100.00;98167.47;5025803;28;20454;-76
2021/06/16 01:57:02;;;;;;;10.60;6.63;;;17.00;99.90;;;18.03;100.00;98173.78;5028364;28;20450;-76
2021/06/16 01:59:33;;;;;;;8.57;6.47;;;16.90;99.90;;;17.99;100.00;98170.00;5025527;28;20457;-76
2021/06/16 02:02:01;;;;;;;11.10;7.07;;;16.90;99.90;;;17.90;100.00;98156.31;5043819;28;20556;-76
2021/06/16 02:04:30;;;;;;;9.40;6.50;;;16.80;99.90;;;18.01;100.00;98163.44;5066462;28;20501;-76
2021/06/16 02:07:07;;;;;;;10.10;6.40;;;16.90;99.90;;;18.07;100.00;98164.34;5063683;28;20536;-76
2021/06/16 02:09:39;;;;;;;9.07;7.00;;;17.00;99.90;;;18.08;100.00;98163.34;5067462;28;20460;-76
2021/06/16 02:12:14;;;;;;;10.13;6.60;;;17.00;99.90;;;18.01;100.00;98157.34;5068297;28;20506;-77
2021/06/16 02:14:51;;;;;;;13.67;6.93;;;16.90;99.90;;;17.89;100.00;98159.19;5065664;28;20525;-76
2021/06/16 02:17:21;;;;;;;13.30;7.47;;;16.80;99.90;;;17.87;100.00;98154.16;5065609;28;20853;-76
2021/06/16 02:19:53;;;;;;;7.33;5.80;;;16.70;99.90;;;17.97;100.00;98158.84;5069170;28;21017;-76
2021/06/16 02:22:25;;;;;;;9.27;6.63;;;16.80;99.90;;;17.78;100.00;98157.34;5070042;28;20480;-76
2021/06/16 02:24:55;;;;;;;10.63;6.97;;;16.60;99.90;;;17.89;100.00;98154.69;5068012;28;20463;-76
2021/06/16 02:27:25;;;;;;;13.73;7.43;;;16.80;99.90;;;17.79;100.00;98145.72;5067385;28;20885;-76
2021/06/16 02:29:54;;;;;;;9.77;6.90;;;16.70;99.90;;;17.83;100.00;98145.06;5068621;28;20525;-76
2021/06/16 02:32:22;;;;;;;9.10;7.30;;;16.70;99.90;;;17.77;100.00;98142.53;5066250;28;21101;-76
2021/06/16 02:34:51;;;;;;;9.93;7.20;;;16.60;99.90;;;17.79;100.00;98141.25;5064182;28;20909;-76
2021/06/16 02:37:22;;;;;;;16.23;7.30;;;16.70;99.90;;;17.79;100.00;98140.44;5066430;28;20491;-76
2021/06/16 02:39:58;;;;;;;10.97;8.43;;;16.70;99.90;;;17.79;100.00;98140.44;5068210;28;21034;-76
2021/06/16 02:42:29;;;;;;;8.20;6.80;;;16.60;99.90;;;17.73;100.00;98141.38;5069379;28;20491;-76
2021/06/16 02:45:02;;;;;;;8.87;6.50;;;16.60;99.90;;;17.79;100.00;98137.78;5066085;28;20971;-76
2021/06/16 02:47:33;;;;;;;11.70;7.83;;;16.70;99.90;;;17.77;100.00;98130.06;5066920;28;20448;-76
2021/06/16 02:50:05;;;;;;;8.10;6.80;;;16.70;99.90;;;17.75;100.00;98136.63;5067552;28;20488;-76
2021/06/16 02:52:39;;;;;;;14.73;7.23;;;16.60;99.90;;;17.85;100.00;98132.38;5068526;28;20603;-77
2021/06/16 02:55:11;;;;;;;15.93;8.20;;;16.80;99.90;;;17.79;100.00;98127.22;5064214;28;20464;-77
2021/06/16 02:57:45;;;;;;;8.37;7.13;;;16.70;99.90;;;17.74;100.00;98127.09;5066683;28;20479;-77
2021/06/16 03:00:16;;;;;;;13.17;6.60;;;16.60;99.90;;;17.83;100.00;98131.00;5065137;28;20468;-77
2021/06/16 03:02:48;;;;;;;12.67;7.37;;;16.70;99.90;;;17.79;100.00;98125.38;5064689;28;20510;-77
2021/06/16 03:05:24;;;;;;;10.83;7.20;;;16.70;99.90;;;17.72;100.00;98124.69;5067683;28;20460;-77
2021/06/16 03:07:57;;;;;;;12.27;7.57;;;16.60;99.90;;;17.72;100.00;98127.34;5064527;28;20550;-77
2021/06/16 03:10:29;;;;;;;14.60;6.60;;;16.60;99.90;;;17.77;100.00;98122.13;5066650;28;21334;-77
2021/06/16 03:13:01;;;;;;;8.33;6.70;;;16.70;99.90;;;17.80;100.00;98123.53;5063379;28;20900;-76
2021/06/16 03:15:30;;;;;;;7.87;6.17;;;16.70;99.90;;;17.69;100.00;98121.69;5063169;28;20525;-77
2021/06/16 03:18:00;;;;;;;12.33;6.70;;;16.60;99.90;;;17.76;100.00;98122.38;5064989;28;20960;-76
2021/06/16 03:20:32;;;;;;;9.10;6.30;;;16.60;99.90;;;17.74;100.00;98124.44;5069049;28;20557;-77
2021/06/16 03:23:02;;;;;;;12.37;7.30;;;16.60;99.90;;;17.70;100.00;98129.38;5067899;28;20495;-76
2021/06/16 03:25:33;;;;;;;9.40;6.60;;;16.60;99.90;;;17.66;100.00;98124.81;5064123;28;20980;-77
2021/06/16 03:28:04;;;;;;;9.10;7.03;;;16.50;99.90;;;17.70;100.00;98133.91;5065417;28;20449;-77
2021/06/16 03:30:34;;;;;;;9.73;7.37;;;16.60;99.90;;;17.63;100.00;98133.19;5065267;28;20509;-77
2021/06/16 03:33:04;;;;;;;9.17;6.80;;;16.50;99.90;;;17.66;100.00;98127.44;5066183;28;20467;-77
2021/06/16 03:35:33;;;;;;;9.37;6.33;;;16.50;99.90;;;17.53;100.00;98129.25;5065094;28;20463;-77
2021/06/16 03:38:04;;;;;;;8.57;6.93;;;16.40;99.90;;;17.55;100.00;98127.19;5062870;28;20460;-77
2021/06/16 03:40:34;;;;;;;14.30;7.37;;;16.40;99.90;;;17.56;100.00;98131.44;5065856;28;20452;-77
2021/06/16 03:43:05;;;;;;;11.53;7.27;;;16.40;99.90;;;17.52;100.00;98124.19;5065094;28;20604;-76
2021/06/16 03:45:35;;;;;;;10.30;7.40;;;16.40;99.90;;;17.47;100.00;98124.06;5062569;28;20841;-77
2021/06/16 03:48:05;;;;;;;16.37;7.57;;;16.30;99.90;;;17.40;100.00;98126.81;5064029;28;20534;-80
2021/06/16 03:50:38;;;;;;;10.40;6.83;;;16.30;99.90;;;17.53;100.00;98126.59;5063984;28;20979;-77
2021/06/16 03:53:11;;;;;;;13.10;6.40;;;16.40;99.90;;;17.59;100.00;98122.28;5068475;28;20457;-77
2021/06/16 03:55:43;;;;;;;10.00;7.33;;;16.50;99.90;;;17.66;100.00;98127.44;5065330;28;20546;-74
2021/06/16 03:58:14;;;;;;;12.90;7.80;;;16.60;99.90;;;17.45;100.00;98131.44;5066644;28;20456;-77
2021/06/16 04:00:44;;;;;;;8.83;6.30;;;16.30;99.90;;;17.35;100.00;98124.06;5063891;28;20461;-78
2021/06/16 04:03:15;;;;;;;11.83;7.47;;;16.20;99.90;;;17.46;100.00;98123.25;5025448;28;20535;-77
2021/06/16 04:05:44;;;;;;;13.70;7.80;;;16.40;99.90;;;17.52;100.00;98122.38;5025496;28;20543;-77
2021/06/16 04:08:13;;;;;;;10.77;7.83;;;16.40;99.90;;;17.53;100.00;98113.38;5027428;28;20858;-77
2021/06/16 04:10:46;;;;;;;9.33;6.53;;;16.40;99.90;;;17.59;100.00;98117.78;5023373;28;20498;-77
2021/06/16 04:13:17;;;;;;;9.87;7.40;;;16.50;99.90;;;17.51;100.00;98117.28;5031182;28;20457;-77
2021/06/16 04:15:47;;;;;;;11.10;7.13;;;16.40;99.90;;;17.47;100.00;98116.13;5022249;28;20520;-77
2021/06/16 04:18:17;;;;;;;8.90;7.03;;;16.40;99.90;;;17.52;100.00;98114.44;5024721;28;20545;-77
2021/06/16 04:20:45;;;;;;;9.50;7.37;;;16.40;99.90;;;17.62;100.00;98116.53;5024590;28;20810;-77
2021/06/16 04:23:15;;;;;;;7.70;6.90;;;16.50;99.90;;;17.62;100.00;98105.94;5026666;28;20559;-79
2021/06/16 04:25:43;;;;;;;8.90;6.50;;;16.50;99.90;;;17.64;100.00;98113.63;5024355;28;20456;-77
2021/06/16 04:28:12;;;;;;;16.03;7.50;;;16.50;99.90;;;17.63;100.00;98106.75;5027243;28;20450;-77
2021/06/16 04:30:42;;;;;;;10.00;7.70;;;16.50;99.90;;;17.66;100.00;98107.09;5027944;28;20442;-77
2021/06/16 04:33:11;;;;;;;10.27;6.93;;;16.60;99.90;;;17.78;100.00;98104.44;5028577;28;20454;-76
2021/06/16 04:35:40;;;;;;;8.87;6.63;;;16.80;99.90;;;17.80;100.00;98102.38;5030408;28;20446;-77
2021/06/16 04:38:09;;;;;;;9.43;7.20;;;16.80;99.90;;;17.70;100.00;98102.94;5029998;28;20585;-77
2021/06/16 04:40:37;;;;;;;11.40;7.30;;;16.60;99.90;;;17.64;100.00;98103.06;5030128;28;20452;-78
2021/06/16 04:43:06;;;;;;;8.63;7.10;;;16.50;99.90;;;17.62;100.00;98103.31;5029556;28;20525;-77
2021/06/16 04:45:35;;;;;;;13.40;8.00;;;16.50;99.90;;;17.71;100.00;98103.75;5029769;28;20500;-77
2021/06/16 04:48:08;;;;;;;11.57;8.13;;;16.60;99.90;;;17.71;100.00;98103.75;5029864;28;20446;-78
2021/06/16 04:50:38;;;;;;;10.30;6.70;;;16.60;99.90;;;17.74;100.00;98093.50;5029767;28;20449;-78
2021/06/16 04:53:08;;;;;;;11.50;8.13;;;16.60;99.90;;;17.74;100.00;98104.09;5030076;28;20458;-78
2021/06/16 04:55:38;;;;;;;9.83;7.00;;;16.60;99.90;;;17.77;100.00;98095.69;5030699;28;21002;-77
2021/06/16 04:58:08;;;;;;;14.40;7.00;;;16.70;99.90;;;17.79;100.00;98093.63;5028776;28;20466;-77
2021/06/16 05:00:37;;;;;;;10.20;7.30;;;16.70;99.90;;;17.81;100.00;98099.47;5029965;28;20468;-78
2021/06/16 05:03:08;;;;;;;11.33;7.30;;;16.70;99.90;;;17.81;100.00;98096.03;5067741;28;20530;-78
2021/06/16 05:05:37;;;;;;;10.43;7.03;;;16.70;99.90;;;17.92;100.00;98090.72;5069427;28;20510;-77
2021/06/16 05:08:06;;;;;;;10.97;7.53;;;16.80;99.90;;;17.98;100.00;98096.91;5068618;28;20863;-77
2021/06/16 05:10:35;;;;;;;9.00;7.43;;;16.90;99.90;;;17.99;100.00;98098.53;5069766;28;20480;-78
2021/06/16 05:13:04;;;;;;;11.63;7.83;;;16.90;99.90;;;18.08;100.00;98100.59;5066573;28;20452;-77
2021/06/16 05:15:41;;;;;;;8.50;6.80;;;17.00;99.90;;;18.16;100.00;98096.78;5069035;28;21041;-77
2021/06/16 05:18:12;;;;;;;11.00;7.03;;;17.10;99.90;;;18.21;100.00;98099.53;5069743;28;20475;-77
2021/06/16 05:20:44;;;;;;;9.20;6.70;;;17.20;99.90;;;18.29;100.00;98096.50;5069177;28;20494;-78
2021/06/16 05:23:14;;;;;;;11.53;7.67;;;17.30;99.90;;;18.35;100.00;98092.94;5069562;28;20811;-79
2021/06/16 05:25:47;;;;;;;11.50;7.67;;;17.40;99.90;;;18.38;100.00;98103.06;5070027;28;20801;-78
2021/06/16 05:28:19;;;;;;;8.90;6.70;;;17.30;99.90;;;18.48;100.00;98095.31;5070220;28;20893;-78
2021/06/16 05:30:49;;;;;;;9.10;7.23;;;17.50;99.90;;;18.53;100.00;98084.81;5070358;28;20448;-78
2021/06/16 05:33:23;;;;;;;10.30;7.47;;;17.50;99.90;;;18.60;100.00;98087.34;5069179;28;20495;-77
2021/06/16 05:35:54;;;;;;;11.13;7.93;;;17.60;99.90;;;18.67;100.00;98087.22;5072099;28;20484;-78
2021/06/16 05:38:24;;;;;;;18.43;7.43;;;17.60;99.90;;;18.75;100.00;98078.84;5074087;28;20495;-78
2021/06/16 05:40:54;;;;;;;9.40;7.07;;;17.70;99.90;;;18.79;100.00;98087.94;5074113;28;20509;-78
2021/06/16 05:43:23;;;;;;;12.73;8.17;;;17.80;99.90;;;18.88;100.00;98084.66;5073462;28;20531;-78
2021/06/16 05:45:53;;;;;;;14.53;7.67;;;17.80;99.90;;;18.96;100.00;98081.63;5073962;28;20858;-78
2021/06/16 05:48:25;;;;;;;9.03;7.00;;;18.00;99.90;;;19.03;100.00;98084.94;5073235;28;20483;-77
2021/06/16 05:50:56;;;;;;;18.77;7.10;;;18.10;99.90;;;19.06;100.00;98081.78;5073060;28;20436;-78
2021/06/16 05:53:25;;;;;;;10.93;8.07;;;18.10;99.90;;;19.13;100.00;98086.13;5069978;28;20463;-77
2021/06/16 05:55:54;;;;;;;13.77;7.77;;;18.20;99.90;;;19.17;100.00;98088.06;5073374;28;20741;-78
2021/06/16 05:58:24;;;;;;;9.13;7.40;;;18.20;99.90;;;19.20;100.00;98084.94;5072899;28;20456;-78
2021/06/16 06:00:54;;;;;;;10.70;8.43;;;18.20;99.90;;;19.25;100.00;98089.53;5059136;28;20529;-78
2021/06/16 06:03:25;;;;;;;12.73;7.90;;;18.30;99.90;;;19.29;100.00;98083.50;5073262;28;20508;-78
2021/06/16 06:05:55;;;;;;;10.30;8.03;;;18.30;99.90;;;19.38;100.00;98084.69;5073152;28;20468;-78
2021/06/16 06:08:27;;;;;;;14.00;7.60;;;18.40;99.90;;;19.45;100.00;98082.72;5072994;28;20550;-78
2021/06/16 06:10:57;;;;;;;12.00;8.07;;;18.50;99.90;;;19.53;100.00;98077.00;5071816;28;20484;-77
2021/06/16 06:13:25;;;;;;;11.40;8.23;;;18.60;99.90;;;19.61;100.00;98078.41;5071047;28;20945;-78
2021/06/16 06:15:54;;;;;;;11.83;7.43;;;18.70;99.90;;;19.68;100.00;98073.75;5071433;28;20854;-78
2021/06/16 06:18:24;;;;;;;17.47;8.50;;;18.70;99.90;;;19.75;100.00;98076.25;5071119;28;21006;-77
2021/06/16 06:20:52;;;;;;;16.27;7.90;;;18.80;99.90;;;19.82;100.00;98075.00;5071101;28;20444;-77
2021/06/16 06:23:21;;;;;;;11.10;7.87;;;18.90;99.90;;;19.88;100.00;98073.22;5071209;28;20488;-77
2021/06/16 06:25:49;;;;;;;14.30;7.67;;;19.00;99.90;;;19.95;100.00;98073.84;5071397;28;20501;-78
2021/06/16 06:28:18;;;;;;;14.20;7.60;;;19.00;99.90;;;20.01;100.00;98071.00;5070562;28;20510;-78
2021/06/16 06:30:46;;;;;;;12.77;8.60;;;19.10;99.90;;;20.07;100.00;98067.38;5071470;28;20459;-78
2021/06/16 06:33:15;;;;;;;11.13;7.90;;;19.20;99.90;;;20.15;100.00;98063.47;5070786;28;20436;-78
2021/06/16 06:35:45;;;;;;;13.47;7.87;;;19.30;99.90;;;20.21;100.00;98059.81;5071142;28;20856;-77
2021/06/16 06:38:14;;;;;;;13.03;8.83;;;19.30;99.90;;;20.29;100.00;98058.63;5070596;28;20460;-77
2021/06/16 06:40:43;;;;;;;12.87;8.20;;;19.40;99.90;;;20.35;100.00;98055.78;5070521;28;20505;-78
2021/06/16 06:43:11;;;;;;;10.00;8.23;;;19.50;99.90;;;20.42;100.00;98055.56;5069221;28;20487;-77
2021/06/16 06:45:40;;;;;;;11.17;7.50;;;19.60;99.90;;;20.47;100.00;98051.13;5067834;28;20490;-77
2021/06/16 06:48:09;;;;;;;11.10;7.30;;;19.60;99.90;;;20.52;100.00;98043.19;5069579;28;20498;-77
2021/06/16 06:50:38;;;;;;;10.80;7.50;;;19.70;99.90;;;20.58;100.00;98050.16;5070786;28;20452;-78
2021/06/16 06:53:08;;;;;;;13.90;6.97;;;19.80;99.90;;;20.64;100.00;98044.91;5073967;28;20456;-77
2021/06/16 06:55:37;;;;;;;12.20;7.03;;;19.90;99.90;;;20.70;100.00;98041.22;5070897;28;20488;-78
2021/06/16 06:58:05;;;;;;;9.97;7.63;;;20.00;99.90;;;20.76;100.00;98038.38;5070250;28;20436;-77
2021/06/16 07:00:34;;;;;;;16.77;7.33;;;20.10;99.90;;;20.80;100.00;98028.84;5070309;28;20448;-77
2021/06/16 07:03:02;;;;;;;9.70;6.70;;;20.10;99.90;;;20.88;100.00;98035.56;5070201;28;20495;-78
2021/06/16 07:05:31;;;;;;;9.97;7.17;;;20.20;99.90;;;20.92;100.00;98031.34;5070578;28;20493;-78
2021/06/16 07:08:00;;;;;;;20.70;7.50;;;20.30;99.90;;;20.98;100.00;98032.97;5070349;28;20505;-78
2021/06/16 07:10:30;;;;;;;10.30;6.90;;;20.30;99.90;;;21.02;100.00;98026.91;5070332;28;20543;-78
2021/06/16 07:12:59;;;;;;;9.60;7.57;;;20.30;99.90;;;21.07;100.00;98029.59;5070708;28;20505;-77
2021/06/16 07:15:28;;;;;;;17.50;6.87;;;20.30;99.90;;;21.12;100.00;98026.19;5070028;28;20494;-78
2021/06/16 07:17:56;;;;;;;9.37;7.13;;;20.40;99.90;;;21.17;100.00;98025.44;5070443;28;20444;-78
2021/06/16 07:20:25;;;;;;;16.07;7.50;;;20.50;99.90;;;21.24;100.00;98026.81;5070197;28;20433;-78
2021/06/16 07:22:54;;;;;;;9.37;6.90;;;20.50;99.90;;;21.29;100.00;98037.50;5070307;28;20456;-78
2021/06/16 07:25:23;;;;;;;8.90;6.63;;;20.60;99.90;;;21.34;100.00;98032.22;5069762;28;20999;-79
2021/06/16 07:27:53;;;;;;;11.50;6.60;;;20.60;99.90;;;21.40;100.00;98017.88;5070713;28;20444;-78
2021/06/16 07:30:22;;;;;;;15.60;7.30;;;20.70;99.90;;;21.45;100.00;98014.47;5069614;28;20501;-78
2021/06/16 07:32:55;;;;;;;11.40;6.80;;;20.80;99.90;;;21.48;100.00;98006.78;5069926;28;20444;-78
2021/06/16 07:35:23;;;;;;;10.40;6.93;;;20.80;99.90;;;21.51;100.00;98008.91;5068888;28;20444;-78
2021/06/16 07:37:52;;;;;;;8.70;6.90;;;20.80;99.90;;;21.58;100.00;98016.66;5069199;28;20462;-78
2021/06/16 07:40:21;;;;;;;13.53;6.40;;;20.80;99.90;;;21.63;100.00;98006.03;5069606;28;20444;-78
2021/06/16 07:42:49;;;;;;;11.37;6.80;;;20.90;99.90;;;21.67;100.00;98011.63;5069821;28;20448;-78
2021/06/16 07:45:21;;;;;;;9.00;6.53;;;21.00;99.90;;;21.75;100.00;98008.50;5069419;28;20498;-78
2021/06/16 07:47:50;;;;;;;10.30;6.40;;;21.10;99.90;;;21.80;100.00;98008.50;5069634;28;20482;-78
2021/06/16 07:50:18;;;;;;;15.90;7.30;;;21.20;99.90;;;21.88;100.00;98010.66;5069595;28;20514;-78
2021/06/16 07:52:47;;;;;;;13.70;7.27;;;21.30;99.90;;;21.92;100.00;97999.28;5071371;28;20445;-78
2021/06/16 07:55:17;;;;;;;8.93;6.10;;;21.30;99.90;;;21.97;100.00;98007.28;5069856;28;20440;-78
2021/06/16 07:57:45;;;;;;;10.53;7.20;;;21.30;99.90;;;22.01;100.00;98010.22;5069215;28;20460;-78
2021/06/16 08:00:16;;;;;;;11.83;7.50;;;21.30;99.90;;;22.05;100.00;98004.09;5069878;28;20433;-78
2021/06/16 08:02:46;;;;;;;11.10;6.83;;;21.40;99.90;;;22.08;100.00;98008.09;5069339;28;20480;-79
2021/06/16 08:05:15;;;;;;;11.77;6.73;;;21.40;99.90;;;22.14;100.00;97998.28;5069302;28;20484;-78
2021/06/16 08:07:45;;;;;;;12.10;7.17;;;21.40;99.90;;;22.16;100.00;97996.94;5069018;28;20448;-78
2021/06/16 08:10:14;;;;;;;11.37;6.97;;;21.50;99.90;;;22.21;100.00;97996.97;5069144;28;20437;-77
2021/06/16 08:12:43;;;;;;;7.37;6.50;;;21.50;99.90;;;22.26;100.00;98001.50;5068525;28;20587;-78
2021/06/16 08:15:13;;;;;;;9.33;6.40;;;21.60;99.90;;;22.32;100.00;97997.81;5069198;28;20924;-78
2021/06/16 08:17:42;;;;;;;10.73;6.23;;;21.60;99.90;;;22.35;100.00;97997.28;5069395;28;20440;-78
2021/06/16 08:20:13;;;;;;;8.70;5.90;;;21.70;99.90;;;22.40;100.00;97990.06;5068652;28;20428;-78
2021/06/16 08:22:42;;;;;;;10.87;6.30;;;21.80;99.90;;;22.46;100.00;97998.88;5068993;28;20820;-78
2021/06/16 08:25:13;;;;;;;10.43;6.43;;;21.80;99.90;;;22.52;100.00;97993.31;5069364;28;20905;-78
2021/06/16 08:27:43;;;;;;;8.43;7.07;;;21.90;99.90;;;22.58;100.00;97997.56;5068921;28;20949;-78
2021/06/16 08:30:16;;;;;;;8.87;6.80;;;21.90;99.90;;;22.61;100.00;98000.75;5068781;28;20866;-79
2021/06/16 08:32:45;;;;;;;8.70;6.50;;;21.90;99.90;;;22.66;100.00;97998.91;5068667;28;20449;-78
2021/06/16 08:35:16;;;;;;;10.40;6.87;;;22.00;99.90;;;22.70;100.00;97991.22;5069259;28;20971;-78
2021/06/16 08:37:46;;;;;;;8.53;6.03;;;22.00;99.90;;;22.74;100.00;97990.41;5071020;28;20452;-78
2021/06/16 08:40:16;;;;;;;9.87;5.53;;;22.00;99.90;;;22.77;100.00;97986.44;5067283;28;20994;-78
2021/06/16 08:42:47;;;;;;;8.00;5.40;;;22.00;99.90;;;22.82;100.00;97989.06;5068782;28;20493;-78
2021/06/16 08:45:18;;;;;;;12.63;6.77;;;22.10;99.90;;;22.87;100.00;97986.41;5068921;28;20505;-78
2021/06/16 08:47:48;;;;;;;8.20;5.97;;;22.20;99.90;;;22.90;100.00;97983.22;5068172;28;20494;-78
2021/06/16 08:50:19;;;;;;;11.70;6.30;;;22.30;99.90;;;22.94;100.00;97989.63;5069049;28;20951;-78
2021/06/16 08:52:48;;;;;;;13.30;6.80;;;22.30;99.90;;;23.02;100.00;97986.38;5072062;28;20572;-78
2021/06/16 08:55:20;;;;;;;10.37;5.80;;;22.40;99.90;;;23.06;100.00;97982.94;5069075;28;20436;-78
2021/06/16 08:57:50;;;;;;;5.60;5.10;;;22.40;99.90;;;23.13;100.00;97981.84;5068570;28;20487;-78
2021/06/16 09:00:22;;;;;;;8.80;6.47;;;22.50;99.90;;;23.17;100.00;97981.06;5068756;28;20493;-78
2021/06/16 09:02:51;;;;;;;11.03;6.03;;;22.60;99.90;;;23.23;100.00;97979.97;5068158;28;20886;-78
2021/06/16 09:05:37;;;;;;;7.17;5.60;;;22.60;99.90;;;23.28;100.00;97979.97;5068713;28;20927;-78
2021/06/16 09:08:18;;;;;;;9.60;5.67;;;22.80;99.90;;;23.36;100.00;97975.94;5067954;28;20444;-78
2021/06/16 09:10:49;;;;;;;9.53;6.00;;;22.90;99.90;;;23.45;100.00;97969.81;5067896;28;20460;-78
2021/06/16 09:13:31;;;;;;;11.23;6.00;;;23.00;99.90;;;23.54;100.00;97975.38;5068376;28;20444;-78
2021/06/16 09:16:01;;;;;;;6.80;5.40;;;23.10;99.90;;;23.62;100.00;97974.03;5068368;28;20452;-78
2021/06/16 09:18:44;;;;;;;10.57;6.10;;;23.10;99.90;;;23.70;100.00;97968.13;5067866;28;20453;-78
2021/06/16 09:21:14;;;;;;;8.63;5.10;;;23.20;99.90;;;23.79;100.00;97971.81;5068696;28;20948;-78
2021/06/16 09:23:44;;;;;;;7.80;5.60;;;23.30;99.90;;;23.85;100.00;97968.03;5068026;28;20449;-78
2021/06/16 09:26:17;;;;;;;10.63;5.77;;;23.30;99.90;;;23.90;100.00;97965.38;5068680;28;21011;-78
2021/06/16 09:28:50;;;;;;;11.37;5.70;;;23.30;99.90;;;23.95;100.00;97968.03;5068403;28;20497;-78
2021/06/16 09:31:21;;;;;;;9.07;5.30;;;23.30;99.90;;;24.00;100.00;97965.31;5068393;28;20428;-78
2021/06/16 09:33:52;;;;;;;8.90;5.10;;;23.40;99.90;;;24.05;100.00;97958.06;5077328;28;20491;-78
2021/06/16 09:36:25;;;;;;;6.70;4.93;;;23.50;99.90;;;24.12;98.50;97957.78;5068175;28;20482;-78
2021/06/16 09:38:54;;;;;;;7.10;5.63;;;23.60;99.90;;;24.16;98.39;97958.81;5068652;28;20472;-78
2021/06/16 09:41:24;;;;;;;6.40;4.53;;;23.60;99.90;;;24.20;96.51;97959.88;5068068;28;20478;-78
2021/06/16 09:43:55;;;;;;;5.17;4.37;;;23.70;99.90;;;24.24;95.82;97958.25;5068352;28;20448;-78
2021/06/16 09:46:23;;;;;;;9.87;4.63;;;23.70;99.90;;;24.31;95.19;97956.06;5067762;28;20530;-78
2021/06/16 09:48:52;;;;;;;6.77;4.80;;;23.70;99.90;;;24.34;95.33;97955.50;5068017;28;20482;-78
2021/06/16 09:51:27;;;;;;;9.43;4.70;;;23.80;99.90;;;24.37;95.62;97949.59;5066514;28;20464;-78
2021/06/16 09:54:13;;;;;;;6.70;4.43;;;23.80;99.90;;;24.41;95.52;97949.84;5071112;28;20472;-78
2021/06/16 09:56:46;;;;;;;8.63;4.90;;;23.90;99.90;;;24.47;96.25;97949.53;5068079;28;20804;-78
2021/06/16 09:59:35;;;;;;;10.27;4.27;;;23.90;99.90;;;24.53;90.96;97945.75;5068230;28;21073;-78
2021/06/16 10:02:04;;;;;;;10.23;4.13;;;24.00;99.90;;;24.56;89.05;97947.06;5062532;28;20537;-78
2021/06/16 10:04:42;;;;;;;10.30;4.10;;;24.00;99.90;;;24.61;87.64;97940.91;5067562;28;20448;-79
2021/06/16 10:07:18;;;;;;;6.33;4.63;;;24.10;99.90;;;24.66;86.57;97930.13;5064329;28;20513;-78
2021/06/16 10:09:55;;;;;;;5.63;3.80;;;24.10;99.90;;;24.70;86.34;97925.81;5067882;28;20452;-78
2021/06/16 10:12:27;;;;;;;7.13;4.37;;;24.20;99.90;;;24.74;85.65;97933.03;5067406;28;20812;-78
2021/06/16 10:14:57;;;;;;;12.60;4.50;;;24.30;99.90;;;24.78;85.27;97934.03;5067820;28;20519;-78
2021/06/16 10:17:26;;;;;;;10.90;4.07;;;24.30;99.90;;;24.83;85.52;97933.22;5067884;28;20964;-78
2021/06/16 10:19:56;;;;;;;5.20;4.43;;;24.40;99.90;;;24.86;85.97;97930.78;5067574;28;20441;-78
2021/06/16 10:22:27;;;;;;;5.73;4.27;;;24.30;99.90;;;24.88;86.96;97928.66;5069300;28;20852;-78
2021/06/16 10:24:55;;;;;;;11.33;4.00;;;24.30;99.90;;;24.94;85.94;97932.06;5071120;28;20483;-78